createdAt,value
2018-03-08T00:00:28.971Z,0
2018-03-08T00:01:43.131Z,0
2018-03-08T00:02:57.976Z,0
2018-03-08T00:04:12.074Z,0
2018-03-08T00:05:26.911Z,0
2018-03-08T00:06:41.289Z,0
2018-03-08T00:07:55.693Z,0
2018-03-08T00:09:09.830Z,0
2018-03-08T00:10:23.955Z,0
2018-03-08T00:11:38.347Z,0
2018-03-08T00:12:53.003Z,0
2018-03-08T00:14:07.398Z,0
2018-03-08T00:15:21.791Z,0
2018-03-08T00:16:35.931Z,0
2018-03-08T00:17:50.603Z,0
2018-03-08T00:19:05.263Z,0
2018-03-08T00:20:19.697Z,0
2018-03-08T00:21:33.802Z,0
2018-03-08T00:22:47.933Z,0
2018-03-08T00:24:02.633Z,0
2018-03-08T00:25:17.470Z,0
2018-03-08T00:26:32.449Z,0
2018-03-08T00:27:46.857Z,0
2018-03-08T00:29:01.283Z,0
2018-03-08T00:30:15.966Z,0
2018-03-08T00:31:30.642Z,0
2018-03-08T00:32:45.335Z,0
2018-03-08T00:34:00.018Z,0
2018-03-08T00:35:15.306Z,0
2018-03-08T00:36:39.751Z,0
2018-03-08T00:37:53.870Z,0
2018-03-08T00:39:07.778Z,0
2018-03-08T00:40:22.154Z,0
2018-03-08T00:41:36.625Z,0
2018-03-08T00:42:51.515Z,0
2018-03-08T00:44:06.735Z,0
2018-03-08T00:45:21.392Z,0
2018-03-08T00:46:36.309Z,0
2018-03-08T00:47:50.997Z,0
2018-03-08T00:49:05.702Z,0
2018-03-08T00:50:19.851Z,0
2018-03-08T00:51:35.086Z,0
2018-03-08T00:52:50.522Z,0
2018-03-08T00:54:05.436Z,0
2018-03-08T00:55:20.106Z,0
2018-03-08T00:56:34.534Z,0
2018-03-08T00:57:55.207Z,0
2018-03-08T00:59:09.565Z,0
2018-03-08T01:00:24.202Z,0
2018-03-08T01:01:38.918Z,0
2018-03-08T01:02:53.305Z,0
2018-03-08T01:04:08.001Z,0
2018-03-08T01:05:22.947Z,0
2018-03-08T01:06:36.870Z,0
2018-03-08T01:07:52.104Z,0
2018-03-08T01:09:06.730Z,0
2018-03-08T01:10:20.893Z,0
2018-03-08T01:11:35.485Z,0
2018-03-08T01:12:50.166Z,0
2018-03-08T01:14:04.852Z,0
2018-03-08T01:15:19.762Z,0
2018-03-08T01:16:34.655Z,0
2018-03-08T01:17:49.701Z,0
2018-03-08T01:19:04.681Z,0
2018-03-08T01:20:19.623Z,0
2018-03-08T01:21:33.720Z,0
2018-03-08T01:22:48.551Z,0
2018-03-08T01:24:03.352Z,0
2018-03-08T01:25:18.824Z,0
2018-03-08T01:26:33.519Z,0
2018-03-08T01:27:47.860Z,0
2018-03-08T01:29:02.276Z,0
2018-03-08T01:30:16.924Z,0
2018-03-08T01:31:31.127Z,0
2018-03-08T01:32:45.955Z,0
2018-03-08T01:34:00.346Z,0
2018-03-08T01:35:14.750Z,0
2018-03-08T01:36:29.137Z,0
2018-03-08T01:37:44.032Z,0
2018-03-08T01:38:59.526Z,0
2018-03-08T01:40:14.760Z,0
2018-03-08T01:41:29.944Z,0
2018-03-08T01:42:44.235Z,0
2018-03-08T01:43:58.978Z,0
2018-03-08T01:45:13.715Z,0
2018-03-08T01:46:27.869Z,0
2018-03-08T01:47:42.731Z,0
2018-03-08T01:48:57.161Z,0
2018-03-08T01:50:11.821Z,0
2018-03-08T01:51:26.783Z,0
2018-03-08T01:52:41.314Z,0
2018-03-08T01:53:56.160Z,0
2018-03-08T01:55:11.097Z,0
2018-03-08T01:56:25.620Z,0
2018-03-08T01:57:40.330Z,0
2018-03-08T01:58:55.789Z,0
2018-03-08T02:00:10.835Z,0
2018-03-08T02:01:25.497Z,0
2018-03-08T02:02:39.876Z,0
2018-03-08T02:03:54.659Z,0
2018-03-08T02:05:09.358Z,0
2018-03-08T02:06:24.365Z,0
2018-03-08T02:07:39.550Z,0
2018-03-08T02:08:54.266Z,0
2018-03-08T02:10:09.496Z,0
2018-03-08T02:11:23.618Z,0
2018-03-08T02:12:37.922Z,0
2018-03-08T02:14:07.018Z,0
2018-03-08T02:15:21.425Z,0
2018-03-08T02:16:35.898Z,0
2018-03-08T02:17:49.769Z,0
2018-03-08T02:19:04.199Z,0
2018-03-08T02:20:19.425Z,0
2018-03-08T02:21:33.535Z,0
2018-03-08T02:22:47.926Z,0
2018-03-08T02:24:01.786Z,0
2018-03-08T02:25:16.455Z,0
2018-03-08T02:26:31.669Z,0
2018-03-08T02:27:45.536Z,0
2018-03-08T02:28:59.955Z,0
2018-03-08T02:30:14.645Z,0
2018-03-08T02:31:28.567Z,0
2018-03-08T02:32:43.528Z,0
2018-03-08T02:33:57.960Z,0
2018-03-08T02:35:12.312Z,0
2018-03-08T02:36:27.278Z,0
2018-03-08T02:37:42.050Z,0
2018-03-08T02:38:56.168Z,0
2018-03-08T02:40:10.592Z,0
2018-03-08T02:41:23.930Z,0
2018-03-08T02:42:38.839Z,0
2018-03-08T02:43:53.325Z,0
2018-03-08T02:45:08.389Z,0
2018-03-08T02:46:22.599Z,0
2018-03-08T02:47:37.017Z,0
2018-03-08T02:48:51.958Z,0
2018-03-08T02:50:06.599Z,0
2018-03-08T02:51:21.837Z,0
2018-03-08T02:52:36.775Z,0
2018-03-08T02:53:51.478Z,0
2018-03-08T02:55:06.074Z,0
2018-03-08T02:56:20.508Z,0
2018-03-08T02:57:35.221Z,0
2018-03-08T02:58:49.897Z,0
2018-03-08T03:00:04.555Z,0
2018-03-08T03:01:19.261Z,0
2018-03-08T03:02:33.540Z,0
2018-03-08T03:03:48.811Z,0
2018-03-08T03:05:03.972Z,0
2018-03-08T03:06:18.904Z,0
2018-03-08T03:07:34.097Z,0
2018-03-08T03:08:48.204Z,0
2018-03-08T03:10:03.276Z,0
2018-03-08T03:11:18.209Z,0
2018-03-08T03:12:32.836Z,0
2018-03-08T03:13:47.498Z,0
2018-03-08T03:15:02.414Z,0
2018-03-08T03:16:17.070Z,0
2018-03-08T03:17:30.907Z,0
2018-03-08T03:18:59.626Z,0
2018-03-08T03:20:14.986Z,0
2018-03-08T03:21:29.964Z,0
2018-03-08T03:22:44.092Z,0
2018-03-08T03:23:57.994Z,0
2018-03-08T03:25:12.949Z,0
2018-03-08T03:26:27.365Z,0
2018-03-08T03:27:42.031Z,0
2018-03-08T03:28:56.446Z,0
2018-03-08T03:30:11.514Z,0
2018-03-08T03:31:26.217Z,0
2018-03-08T03:32:40.613Z,0
2018-03-08T03:33:54.745Z,0
2018-03-08T03:35:09.756Z,0
2018-03-08T03:36:24.641Z,0
2018-03-08T03:37:39.256Z,0
2018-03-08T03:38:53.112Z,0
2018-03-08T03:40:08.110Z,0
2018-03-08T03:41:22.264Z,0
2018-03-08T03:42:35.843Z,0
2018-03-08T03:43:49.734Z,0
2018-03-08T03:45:03.899Z,0
2018-03-08T03:46:18.892Z,0
2018-03-08T03:47:33.299Z,0
2018-03-08T03:48:47.406Z,0
2018-03-08T03:50:02.645Z,0
2018-03-08T03:51:17.042Z,0
2018-03-08T03:52:31.949Z,0
2018-03-08T03:53:46.414Z,0
2018-03-08T03:55:01.070Z,0
2018-03-08T03:56:15.402Z,0
2018-03-08T03:57:29.991Z,0
2018-03-08T03:58:44.365Z,0
2018-03-08T03:59:58.759Z,0
2018-03-08T04:01:13.156Z,0
2018-03-08T04:02:27.857Z,0
2018-03-08T04:03:41.948Z,0
2018-03-08T04:04:56.612Z,0
2018-03-08T04:06:10.642Z,0
2018-03-08T04:07:25.850Z,0
2018-03-08T04:08:39.751Z,0
2018-03-08T04:09:54.689Z,0
2018-03-08T04:11:09.288Z,0
2018-03-08T04:12:23.807Z,0
2018-03-08T04:13:38.446Z,0
2018-03-08T04:14:53.665Z,0
2018-03-08T04:16:07.770Z,0
2018-03-08T04:17:22.602Z,0
2018-03-08T04:18:37.253Z,0
2018-03-08T04:19:51.844Z,0
2018-03-08T04:21:06.234Z,0
2018-03-08T04:22:21.384Z,0
2018-03-08T04:23:35.779Z,0
2018-03-08T04:24:50.163Z,0
2018-03-08T04:26:04.561Z,0
2018-03-08T04:27:19.742Z,0
2018-03-08T04:28:34.125Z,0
2018-03-08T04:29:48.786Z,0
2018-03-08T04:31:03.439Z,0
2018-03-08T04:32:18.166Z,0
2018-03-08T04:33:32.784Z,0
2018-03-08T04:34:47.190Z,0
2018-03-08T04:36:01.364Z,0
2018-03-08T04:37:15.293Z,0
2018-03-08T04:38:29.159Z,0
2018-03-08T04:39:43.816Z,0
2018-03-08T04:40:57.499Z,0
2018-03-08T04:42:11.716Z,0
2018-03-08T04:43:25.607Z,0
2018-03-08T04:44:39.501Z,0
2018-03-08T04:45:54.484Z,0
2018-03-08T04:47:09.182Z,0
2018-03-08T04:48:23.596Z,0
2018-03-08T04:49:38.296Z,0
2018-03-08T04:50:53.214Z,0
2018-03-08T04:52:08.228Z,0
2018-03-08T04:53:22.930Z,0
2018-03-08T04:54:36.807Z,0
2018-03-08T04:55:51.966Z,0
2018-03-08T04:57:06.614Z,0
2018-03-08T04:58:21.622Z,0
2018-03-08T04:59:36.756Z,0
2018-03-08T05:00:50.890Z,0
2018-03-08T05:02:05.036Z,0
2018-03-08T05:03:22.533Z,0
2018-03-08T05:04:37.232Z,0
2018-03-08T05:05:51.308Z,0
2018-03-08T05:07:05.182Z,0
2018-03-08T05:08:19.668Z,0
2018-03-08T05:09:33.769Z,0
2018-03-08T05:10:48.461Z,0
2018-03-08T05:12:02.854Z,0
2018-03-08T05:13:17.674Z,0
2018-03-08T05:14:31.585Z,0
2018-03-08T05:15:46.248Z,0
2018-03-08T05:17:00.940Z,0
2018-03-08T05:18:15.632Z,0
2018-03-08T05:19:30.134Z,0
2018-03-08T05:20:44.805Z,0
2018-03-08T05:21:59.484Z,0
2018-03-08T05:23:14.207Z,0
2018-03-08T05:24:27.825Z,0
2018-03-08T05:25:42.255Z,0
2018-03-08T05:26:56.914Z,0
2018-03-08T05:28:11.035Z,0
2018-03-08T05:29:25.965Z,0
2018-03-08T05:30:40.089Z,4
2018-03-08T05:31:54.702Z,4
2018-03-08T05:33:09.657Z,0
2018-03-08T05:34:23.796Z,4
2018-03-08T05:35:38.702Z,4
2018-03-08T05:36:53.009Z,4
2018-03-08T05:38:08.204Z,4
2018-03-08T05:39:22.817Z,4
2018-03-08T05:40:37.763Z,4
2018-03-08T05:41:52.760Z,4
2018-03-08T05:43:07.717Z,4
2018-03-08T05:44:22.813Z,8
2018-03-08T05:45:38.033Z,8
2018-03-08T05:46:52.833Z,12
2018-03-08T05:48:07.798Z,16
2018-03-08T05:49:22.675Z,20
2018-03-08T05:50:36.831Z,24
2018-03-08T05:51:51.269Z,28
2018-03-08T05:53:05.179Z,28
2018-03-08T05:54:19.885Z,32
2018-03-08T05:55:33.839Z,40
2018-03-08T05:56:48.792Z,60
2018-03-08T05:58:03.467Z,52
2018-03-08T05:59:18.377Z,52
2018-03-08T06:00:32.575Z,76
2018-03-08T06:01:46.954Z,76
2018-03-08T06:03:01.392Z,68
2018-03-08T06:04:15.843Z,76
2018-03-08T06:05:30.418Z,84
2018-03-08T06:06:44.875Z,100
2018-03-08T06:07:59.023Z,112
2018-03-08T06:09:13.716Z,132
2018-03-08T06:10:27.904Z,120
2018-03-08T06:11:42.079Z,132
2018-03-08T06:12:57.069Z,144
2018-03-08T06:14:11.482Z,144
2018-03-08T06:15:26.118Z,152
2018-03-08T06:16:40.697Z,156
2018-03-08T06:17:54.600Z,160
2018-03-08T06:19:09.597Z,164
2018-03-08T06:20:24.807Z,188
2018-03-08T06:21:39.525Z,196
2018-03-08T06:22:54.465Z,220
2018-03-08T06:24:09.156Z,192
2018-03-08T06:25:24.152Z,200
2018-03-08T06:26:39.267Z,196
2018-03-08T06:27:52.620Z,188
2018-03-08T06:29:07.567Z,228
2018-03-08T06:30:22.744Z,208
2018-03-08T06:31:37.389Z,196
2018-03-08T06:32:52.351Z,212
2018-03-08T06:34:07.013Z,188
2018-03-08T06:35:21.098Z,200
2018-03-08T06:36:46.076Z,284
2018-03-08T06:38:00.692Z,344
2018-03-08T06:39:15.378Z,416
2018-03-08T06:40:29.773Z,412
2018-03-08T06:41:44.570Z,384
2018-03-08T06:42:59.042Z,332
2018-03-08T06:44:14.041Z,320
2018-03-08T06:45:28.219Z,308
2018-03-08T06:46:43.599Z,352
2018-03-08T06:47:58.074Z,584
2018-03-08T06:49:12.515Z,664
2018-03-08T06:50:26.433Z,688
2018-03-08T06:51:41.424Z,596
2018-03-08T06:52:56.118Z,584
2018-03-08T06:54:10.523Z,612
2018-03-08T06:55:24.709Z,632
2018-03-08T06:56:39.373Z,712
2018-03-08T06:57:53.523Z,564
2018-03-08T06:59:08.608Z,564
2018-03-08T07:00:22.840Z,440
2018-03-08T07:01:37.954Z,376
2018-03-08T07:02:52.742Z,428
2018-03-08T07:04:07.472Z,432
2018-03-08T07:05:22.376Z,448
2018-03-08T07:06:37.581Z,492
2018-03-08T07:07:53.965Z,628
2018-03-08T07:09:08.598Z,588
2018-03-08T07:10:23.010Z,588
2018-03-08T07:11:37.629Z,656
2018-03-08T07:12:52.478Z,664
2018-03-08T07:14:07.434Z,672
2018-03-08T07:15:22.378Z,552
2018-03-08T07:16:37.039Z,524
2018-03-08T07:17:52.043Z,496
2018-03-08T07:19:06.460Z,400
2018-03-08T07:20:21.403Z,428
2018-03-08T07:21:36.057Z,556
2018-03-08T07:22:51.196Z,540
2018-03-08T07:24:05.849Z,576
2018-03-08T07:25:20.252Z,588
2018-03-08T07:26:35.183Z,576
2018-03-08T07:27:49.982Z,780
2018-03-08T07:29:04.936Z,936
2018-03-08T07:30:19.376Z,800
2018-03-08T07:31:33.780Z,816
2018-03-08T07:32:48.696Z,784
2018-03-08T07:34:03.106Z,888
2018-03-08T07:35:18.221Z,976
2018-03-08T07:36:32.363Z,1268
2018-03-08T07:37:47.594Z,1420
2018-03-08T07:39:02.284Z,1696
2018-03-08T07:40:16.433Z,1912
2018-03-08T07:41:32.168Z,2112
2018-03-08T07:42:47.187Z,2044
2018-03-08T07:44:01.871Z,1592
2018-03-08T07:45:16.274Z,1300
2018-03-08T07:46:30.956Z,1496
2018-03-08T07:47:46.374Z,1616
2018-03-08T07:49:00.517Z,2040
2018-03-08T07:50:15.275Z,2324
2018-03-08T07:51:30.009Z,2792
2018-03-08T07:52:45.064Z,2216
2018-03-08T07:54:00.221Z,2128
2018-03-08T07:55:15.724Z,1952
2018-03-08T07:56:29.690Z,1936
2018-03-08T07:57:44.716Z,2148
2018-03-08T07:58:59.393Z,2224
2018-03-08T08:00:14.065Z,2000
2018-03-08T08:01:28.992Z,2476
2018-03-08T08:02:43.662Z,2960
2018-03-08T08:03:58.897Z,2544
2018-03-08T08:05:13.020Z,2068
2018-03-08T08:06:27.137Z,1896
2018-03-08T08:07:40.936Z,1932
2018-03-08T08:08:55.431Z,1860
2018-03-08T08:10:10.895Z,1712
2018-03-08T08:11:25.065Z,2092
2018-03-08T08:12:40.109Z,1924
2018-03-08T08:13:55.737Z,2276
2018-03-08T08:15:10.944Z,2532
2018-03-08T08:16:26.506Z,2684
2018-03-08T08:17:41.057Z,2680
2018-03-08T08:18:55.864Z,2592
2018-03-08T08:20:10.640Z,2460
2018-03-08T08:21:24.861Z,2592
2018-03-08T08:22:39.988Z,2348
2018-03-08T08:44:46.084Z,4788
2018-03-08T08:46:07.747Z,4756
2018-03-08T08:47:22.197Z,4592
2018-03-08T08:48:37.251Z,4372
2018-03-08T08:49:52.588Z,4040
2018-03-08T08:51:07.248Z,3728
2018-03-08T08:52:21.854Z,3704
2018-03-08T08:53:36.909Z,3968
2018-03-08T08:54:51.687Z,3732
2018-03-08T08:56:06.713Z,4116
2018-03-08T08:57:21.436Z,4212
2018-03-08T08:58:36.175Z,4036
2018-03-08T08:59:51.357Z,3832
2018-03-08T09:01:05.642Z,4168
2018-03-08T09:02:20.402Z,4160
2018-03-08T09:03:34.688Z,3728
2018-03-08T09:04:50.177Z,3260
2018-03-08T09:06:05.251Z,3504
2018-03-08T09:07:19.216Z,3960
2018-03-08T09:08:33.804Z,3892
2018-03-08T09:09:48.533Z,3200
2018-03-08T09:11:03.572Z,2840
2018-03-08T09:12:18.227Z,2972
2018-03-08T09:13:33.109Z,3140
2018-03-08T09:14:49.071Z,2448
2018-03-08T09:16:03.914Z,1792
2018-03-08T09:17:18.933Z,1864
2018-03-08T09:18:34.356Z,2576
2018-03-08T09:19:50.008Z,3264
2018-03-08T09:21:05.559Z,3104
2018-03-08T09:22:19.725Z,3672
2018-03-08T09:23:34.761Z,3848
2018-03-08T09:24:49.554Z,3516
2018-03-08T09:26:04.855Z,3288
2018-03-08T09:27:20.091Z,5044
2018-03-08T09:28:34.654Z,3860
2018-03-08T09:29:50.029Z,3196
2018-03-08T09:31:04.969Z,3028
2018-03-08T09:32:19.687Z,3792
2018-03-08T09:33:34.213Z,3544
2018-03-08T09:34:49.293Z,3316
2018-03-08T09:36:04.035Z,3004
2018-03-08T09:37:18.878Z,3532
2018-03-08T09:38:33.136Z,3172
2018-03-08T09:39:48.812Z,2888
2018-03-08T09:41:03.805Z,2540
2018-03-08T09:42:18.057Z,2328
2018-03-08T09:43:32.797Z,2448
2018-03-08T09:44:47.592Z,2836
2018-03-08T09:46:02.303Z,3128
2018-03-08T09:47:17.132Z,3456
2018-03-08T09:48:31.450Z,3720
2018-03-08T09:49:46.142Z,4488
2018-03-08T09:51:00.888Z,4312
2018-03-08T09:52:38.032Z,4128
2018-03-08T09:53:52.559Z,3644
2018-03-08T09:55:07.085Z,4044
2018-03-08T09:56:21.392Z,4288
2018-03-08T09:57:35.998Z,3868
2018-03-08T09:58:50.859Z,2344
2018-03-08T10:00:05.438Z,2044
2018-03-08T10:01:20.606Z,2796
2018-03-08T10:02:35.670Z,2588
2018-03-08T10:03:50.712Z,3124
2018-03-08T10:05:05.551Z,3332
2018-03-08T10:06:20.144Z,2260
2018-03-08T10:07:35.274Z,2440
2018-03-08T10:08:49.871Z,4012
2018-03-08T10:10:04.123Z,4016
2018-03-08T10:11:19.664Z,3660
2018-03-08T10:12:34.207Z,4564
2018-03-08T10:13:48.991Z,4776
2018-03-08T10:15:03.607Z,4836
2018-03-08T10:16:17.761Z,3648
2018-03-08T10:17:32.873Z,3588
2018-03-08T10:18:47.401Z,4072
2018-03-08T10:20:02.423Z,5420
2018-03-08T10:21:43.632Z,4992
2018-03-08T10:22:59.389Z,2940
2018-03-08T10:24:14.473Z,3452
2018-03-08T10:25:49.530Z,3456
2018-03-08T10:27:04.231Z,4088
2018-03-08T10:28:19.500Z,4808
2018-03-08T10:29:34.232Z,4440
2018-03-08T10:30:49.162Z,5348
2018-03-08T10:32:03.514Z,5028
2018-03-08T10:33:17.753Z,3672
2018-03-08T10:34:33.136Z,3020
2018-03-08T10:35:48.166Z,3708
2018-03-08T10:37:03.753Z,4484
2018-03-08T10:38:17.694Z,4240
2018-03-08T10:39:33.563Z,3920
2018-03-08T10:40:51.076Z,3848
2018-03-08T10:42:06.041Z,3304
2018-03-08T10:43:21.041Z,3196
2018-03-08T10:44:35.499Z,3272
2018-03-08T10:45:50.502Z,3512
2018-03-08T10:47:05.617Z,2896
2018-03-08T10:48:19.839Z,2496
2018-03-08T10:49:34.426Z,3456
2018-03-08T10:50:48.832Z,4352
2018-03-08T10:52:03.740Z,4188
2018-03-08T10:53:18.787Z,4356
2018-03-08T10:54:33.506Z,3352
2018-03-08T10:55:49.024Z,2588
2018-03-08T10:57:04.032Z,1772
2018-03-08T10:58:50.854Z,2544
2018-03-08T11:00:05.117Z,2732
2018-03-08T11:01:19.888Z,2440
2018-03-08T11:02:35.028Z,2128
2018-03-08T11:03:49.438Z,2296
2018-03-08T11:05:03.968Z,2392
2018-03-08T11:06:18.726Z,2484
2018-03-08T11:07:48.131Z,2624
2018-03-08T11:09:02.351Z,4904
2018-03-08T11:10:17.081Z,3660
2018-03-08T11:11:32.162Z,4524
2018-03-08T11:12:46.859Z,4912
2018-03-08T11:14:01.557Z,4656
2018-03-08T11:15:16.311Z,5500
2018-03-08T11:16:31.387Z,5460
2018-03-08T11:17:46.156Z,5236
2018-03-08T11:19:00.734Z,5104
2018-03-08T11:20:14.748Z,4988
2018-03-08T11:21:29.217Z,4388
2018-03-08T11:22:44.416Z,3504
2018-03-08T11:23:59.199Z,3668
2018-03-08T11:25:13.892Z,3260
2018-03-08T11:26:28.667Z,2580
2018-03-08T11:27:43.600Z,3216
2018-03-08T11:28:58.453Z,4332
2018-03-08T11:30:12.662Z,4688
2018-03-08T11:31:41.183Z,5020
2018-03-08T11:32:56.038Z,5228
2018-03-08T11:34:10.564Z,5744
2018-03-08T11:35:25.150Z,5052
2018-03-08T11:36:39.943Z,3912
2018-03-08T11:37:55.103Z,3508
2018-03-08T11:39:10.278Z,2996
2018-03-08T11:40:25.042Z,3000
2018-03-08T11:41:39.337Z,2676
2018-03-08T11:42:55.301Z,3648
2018-03-08T11:44:10.508Z,4760
2018-03-08T11:45:26.188Z,4952
2018-03-08T11:46:40.761Z,4888
2018-03-08T11:47:56.080Z,4396
2018-03-08T11:49:10.717Z,4736
2018-03-08T11:50:26.789Z,4292
2018-03-08T11:51:41.100Z,4700
2018-03-08T11:52:55.853Z,4488
2018-03-08T11:54:10.733Z,4416
2018-03-08T11:55:25.321Z,4148
2018-03-08T11:56:39.907Z,4316
2018-03-08T11:57:54.789Z,4252
2018-03-08T11:59:09.505Z,3556
2018-03-08T12:00:24.293Z,2772
2018-03-08T12:01:38.578Z,2668
2018-03-08T12:02:53.651Z,2116
2018-03-08T12:04:08.680Z,1528
2018-03-08T12:05:23.035Z,1724
2018-03-08T12:06:37.269Z,1976
2018-03-08T12:07:51.267Z,1460
2018-03-08T12:09:06.220Z,1708
2018-03-08T12:10:21.879Z,2268
2018-03-08T12:11:36.441Z,2576
2018-03-08T12:12:52.100Z,3316
2018-03-08T12:14:07.100Z,3044
2018-03-08T12:15:21.920Z,2580
2018-03-08T12:16:36.769Z,3452
2018-03-08T12:17:51.990Z,3720
2018-03-08T12:19:07.290Z,4140
2018-03-08T12:20:22.567Z,4048
2018-03-08T12:21:37.160Z,3208
2018-03-08T12:22:52.642Z,2368
2018-03-08T12:24:07.140Z,2284
2018-03-08T12:25:22.001Z,3188
2018-03-08T12:26:36.972Z,3960
2018-03-08T12:27:51.696Z,3956
2018-03-08T12:29:07.293Z,3800
2018-03-08T12:30:21.723Z,3260
2018-03-08T12:31:36.547Z,3620
2018-03-08T12:32:51.568Z,3820
2018-03-08T12:34:06.359Z,3844
2018-03-08T12:35:20.767Z,3924
2018-03-08T12:36:35.787Z,4048
2018-03-08T12:37:50.669Z,4212
2018-03-08T12:39:05.618Z,4276
2018-03-08T12:40:20.847Z,3760
2018-03-08T12:41:34.844Z,3432
2018-03-08T12:42:50.068Z,3412
2018-03-08T12:44:05.353Z,3220
2018-03-08T12:45:20.815Z,4092
2018-03-08T12:46:36.040Z,4092
2018-03-08T12:47:50.667Z,3304
2018-03-08T12:49:19.550Z,2896
2018-03-08T12:50:34.108Z,2900
2018-03-08T12:51:49.196Z,2504
2018-03-08T12:53:02.864Z,2268
2018-03-08T12:54:17.780Z,2200
2018-03-08T12:55:32.151Z,2348
2018-03-08T12:56:46.909Z,2972
2018-03-08T12:58:01.509Z,3916
2018-03-08T12:59:16.362Z,3788
2018-03-08T13:00:31.149Z,3200
2018-03-08T13:01:45.149Z,3216
2018-03-08T13:03:00.015Z,3460
2018-03-08T13:04:14.382Z,3776
2018-03-08T13:05:29.418Z,3992
2018-03-08T13:06:44.570Z,4340
2018-03-08T13:07:59.249Z,4624
2018-03-08T13:09:15.000Z,5008
2018-03-08T13:10:30.109Z,5192
2018-03-08T13:11:45.598Z,5160
2018-03-08T13:13:00.101Z,5192
2018-03-08T13:14:14.873Z,5076
2018-03-08T13:15:30.184Z,4888
2018-03-08T13:16:45.571Z,4408
2018-03-08T13:18:00.629Z,4280
2018-03-08T13:19:14.925Z,3996
2018-03-08T13:20:29.743Z,3816
2018-03-08T13:21:44.886Z,3700
2018-03-08T13:22:59.495Z,3504
2018-03-08T13:24:14.851Z,3236
2018-03-08T13:25:30.286Z,3084
2018-03-08T13:26:45.471Z,3032
2018-03-08T13:28:00.142Z,2960
2018-03-08T13:29:15.630Z,2864
2018-03-08T13:30:31.033Z,2736
2018-03-08T13:31:45.256Z,2700
2018-03-08T13:33:00.787Z,2668
2018-03-08T13:34:15.783Z,2724
2018-03-08T13:35:31.653Z,2540
2018-03-08T13:36:46.440Z,2288
2018-03-08T13:38:00.609Z,2184
2018-03-08T13:39:15.943Z,2168
2018-03-08T13:40:30.936Z,2200
2018-03-08T13:41:46.165Z,2364
2018-03-08T13:43:01.177Z,2548
2018-03-08T13:44:16.194Z,2724
2018-03-08T13:45:30.837Z,2876
2018-03-08T13:46:46.017Z,3168
2018-03-08T13:48:00.905Z,3452
2018-03-08T13:49:16.252Z,3468
2018-03-08T13:50:31.160Z,3436
2018-03-08T13:51:45.718Z,3624
2018-03-08T13:53:00.106Z,3712
2018-03-08T13:54:15.488Z,3644
2018-03-08T13:55:30.676Z,3644
2018-03-08T13:56:45.879Z,3560
2018-03-08T13:58:01.055Z,3384
2018-03-08T13:59:16.132Z,3260
2018-03-08T14:00:31.997Z,3536
2018-03-08T14:01:46.878Z,3188
2018-03-08T14:03:01.804Z,2972
2018-03-08T14:04:16.740Z,2252
2018-03-08T14:05:31.915Z,2324
2018-03-08T14:06:47.360Z,2188
2018-03-08T14:08:02.969Z,1912
2018-03-08T14:09:17.534Z,2100
2018-03-08T14:10:32.483Z,2360
2018-03-08T14:11:47.845Z,2056
2018-03-08T14:13:02.682Z,1692
2018-03-08T14:14:17.693Z,1692
2018-03-08T14:15:32.939Z,1968
2018-03-08T14:16:48.332Z,1752
2018-03-08T14:18:02.874Z,1964
2018-03-08T14:19:17.172Z,2204
2018-03-08T14:20:32.309Z,1880
2018-03-08T14:21:47.978Z,1928
2018-03-08T14:23:02.540Z,2052
2018-03-08T14:24:17.140Z,2076
2018-03-08T14:25:32.867Z,2320
2018-03-08T14:26:48.165Z,2116
2018-03-08T14:28:04.017Z,2084
2018-03-08T14:29:19.246Z,1880
2018-03-08T14:30:33.658Z,1420
2018-03-08T14:31:49.022Z,1144
2018-03-08T14:33:04.257Z,1116
2018-03-08T14:34:19.247Z,1324
2018-03-08T14:35:34.094Z,1468
2018-03-08T14:36:49.207Z,1916
2018-03-08T14:38:04.117Z,1916
2018-03-08T14:39:19.247Z,1628
2018-03-08T14:40:33.915Z,1436
2018-03-08T14:41:48.549Z,1248
2018-03-08T14:43:03.371Z,1164
2018-03-08T14:44:17.375Z,1184
2018-03-08T14:45:31.214Z,1220
2018-03-08T14:47:07.825Z,1156
2018-03-08T14:48:22.384Z,1176
2018-03-08T14:49:36.575Z,1268
2018-03-08T14:50:50.863Z,1312
2018-03-08T14:52:05.963Z,1264
2018-03-08T14:53:21.709Z,1680
2018-03-08T14:54:36.940Z,2132
2018-03-08T14:55:51.758Z,2176
2018-03-08T14:57:06.754Z,2320
2018-03-08T14:58:21.079Z,2416
2018-03-08T14:59:36.218Z,2304
2018-03-08T15:00:51.282Z,2260
2018-03-08T15:02:06.022Z,2344
2018-03-08T15:03:21.185Z,2584
2018-03-08T15:04:50.129Z,3316
2018-03-08T15:06:04.818Z,3664
2018-03-08T15:07:19.648Z,3240
2018-03-08T15:08:34.148Z,2604
2018-03-08T15:09:48.908Z,2236
2018-03-08T15:11:04.248Z,1760
2018-03-08T15:12:19.400Z,1492
2018-03-08T15:13:34.839Z,1412
2018-03-08T15:14:49.997Z,1368
2018-03-08T15:16:05.040Z,1288
2018-03-08T15:17:19.713Z,1228
2018-03-08T15:18:34.503Z,1084
2018-03-08T15:19:49.220Z,952
2018-03-08T15:21:03.281Z,900
2018-03-08T15:22:18.411Z,920
2018-03-08T15:23:33.559Z,1068
2018-03-08T15:24:48.218Z,1180
2018-03-08T15:26:03.285Z,1228
2018-03-08T15:27:17.928Z,1184
2018-03-08T15:28:33.046Z,1164
2018-03-08T15:29:49.863Z,1044
2018-03-08T15:31:05.258Z,984
2018-03-08T15:32:19.439Z,1168
2018-03-08T15:33:34.394Z,1320
2018-03-08T15:34:48.982Z,1228
2018-03-08T15:36:03.491Z,1024
2018-03-08T15:37:18.293Z,776
2018-03-08T15:38:33.313Z,696
2018-03-08T15:39:49.212Z,708
2018-03-08T15:41:04.017Z,728
2018-03-08T15:42:19.309Z,704
2018-03-08T15:43:34.155Z,588
2018-03-08T15:44:48.941Z,600
2018-03-08T15:46:03.409Z,736
2018-03-08T15:47:17.386Z,936
2018-03-08T15:52:39.459Z,1008
2018-03-08T15:53:54.096Z,1052
2018-03-08T15:55:09.787Z,1092
2018-03-08T15:56:24.898Z,1120
2018-03-08T15:57:40.374Z,1112
2018-03-08T15:58:55.559Z,1100
2018-03-08T16:00:10.507Z,1104
2018-03-08T16:01:40.600Z,1064
2018-03-08T16:02:55.214Z,1028
2018-03-08T16:04:10.027Z,980
2018-03-08T16:05:24.610Z,912
2018-03-08T16:06:39.340Z,888
2018-03-08T16:07:54.414Z,892
2018-03-08T16:09:09.902Z,884
2018-03-08T16:10:25.198Z,864
2018-03-08T16:11:40.529Z,812
2018-03-08T16:12:55.412Z,736
2018-03-08T16:14:09.802Z,672
2018-03-08T16:15:25.016Z,668
2018-03-08T16:16:39.990Z,712
2018-03-08T16:17:54.702Z,712
2018-03-08T16:19:09.295Z,636
2018-03-08T16:20:24.501Z,552
2018-03-08T16:21:40.011Z,564
2018-03-08T16:22:55.300Z,512
2018-03-08T16:24:10.433Z,468
2018-03-08T16:25:25.330Z,492
2018-03-08T16:26:40.185Z,456
2018-03-08T16:27:55.351Z,412
2018-03-08T16:29:10.560Z,372
2018-03-08T16:30:24.984Z,400
2018-03-08T16:31:39.973Z,460
2018-03-08T16:32:54.916Z,512
2018-03-08T16:34:10.157Z,520
2018-03-08T16:35:25.240Z,460
2018-03-08T16:36:40.216Z,344
2018-03-08T16:37:55.176Z,288
2018-03-08T16:39:09.858Z,240
2018-03-08T16:40:25.124Z,216
2018-03-08T16:41:40.281Z,188
2018-03-08T16:42:54.976Z,204
2018-03-08T16:44:10.210Z,220
2018-03-08T16:45:25.209Z,220
2018-03-08T16:46:41.862Z,232
2018-03-08T16:47:56.452Z,252
2018-03-08T16:49:11.750Z,236
2018-03-08T16:50:26.455Z,220
2018-03-08T16:51:41.905Z,236
2018-03-08T16:52:57.277Z,248
2018-03-08T16:54:11.925Z,224
2018-03-08T16:55:27.198Z,204
2018-03-08T16:56:43.305Z,172
2018-03-08T16:57:58.201Z,164
2018-03-08T16:59:13.340Z,140
2018-03-08T17:00:28.658Z,116
2018-03-08T17:01:43.480Z,100
2018-03-08T17:02:58.785Z,88
2018-03-08T17:04:14.755Z,80
2018-03-08T17:05:29.105Z,76
2018-03-08T17:06:44.364Z,68
2018-03-08T17:07:58.430Z,56
2018-03-08T17:09:14.228Z,44
2018-03-08T17:10:29.476Z,36
2018-03-08T17:11:44.211Z,44
2018-03-08T17:12:58.640Z,48
2018-03-08T17:14:13.827Z,40
2018-03-08T17:15:35.596Z,24
2018-03-08T17:16:51.409Z,16
2018-03-08T17:18:06.460Z,16
2018-03-08T17:19:20.866Z,12
2018-03-08T17:20:36.458Z,8
2018-03-08T17:21:51.062Z,4
2018-03-08T17:23:06.160Z,8
2018-03-08T17:24:21.571Z,8
2018-03-08T17:25:36.937Z,8
2018-03-08T17:26:52.150Z,4
2018-03-08T17:28:06.725Z,4
2018-03-08T17:29:21.791Z,0
2018-03-08T17:30:36.154Z,0
2018-03-08T17:31:50.783Z,4
2018-03-08T17:33:04.269Z,4
2018-03-08T17:34:19.529Z,0
2018-03-08T17:35:34.256Z,0
2018-03-08T17:36:48.957Z,0
2018-03-08T17:38:03.779Z,0
2018-03-08T17:39:18.173Z,0
2018-03-08T17:40:32.783Z,0
2018-03-08T17:41:48.297Z,0
2018-03-08T17:43:02.955Z,0
2018-03-08T17:44:18.129Z,0
2018-03-08T17:45:33.690Z,0
2018-03-08T17:46:49.043Z,0
2018-03-08T17:48:04.622Z,0
2018-03-08T17:49:19.302Z,0
2018-03-08T17:50:34.317Z,0